createdAt,value
2023-01-11T00:02:37.435Z,100125.66
2023-01-11T00:05:41.759Z,100124.69
2023-01-11T00:08:44.257Z,100124.66
2023-01-11T00:11:47.161Z,100123.34
2023-01-11T00:14:49.716Z,100118.91
2023-01-11T00:17:52.572Z,100113.19
2023-01-11T00:20:55.103Z,100112.22
2023-01-11T00:23:57.947Z,100116.53
2023-01-11T00:27:00.462Z,100115.78
2023-01-11T00:30:03.399Z,100122.97
2023-01-11T00:33:06.067Z,100117.69
2023-01-11T00:36:09.618Z,100115.47
2023-01-11T00:39:12.074Z,100121.28
2023-01-11T00:42:33.844Z,100124.75
2023-01-11T00:45:55.079Z,100138.63
2023-01-11T00:48:58.009Z,100137.19
2023-01-11T00:52:00.783Z,100131.50
2023-01-11T00:55:03.936Z,100135.81
2023-01-11T00:58:06.465Z,100138.56
2023-01-11T01:01:09.325Z,100143.03
2023-01-11T01:04:11.985Z,100151.22
2023-01-11T01:07:14.800Z,100158.03
2023-01-11T01:10:18.302Z,100155.34
2023-01-11T01:13:39.467Z,100169.97
2023-01-11T01:16:42.354Z,100168.72
2023-01-11T01:19:45.301Z,100179.81
2023-01-11T01:22:48.208Z,100179.31
2023-01-11T01:25:50.986Z,100173.59
2023-01-11T01:28:53.444Z,100183.94
2023-01-11T01:31:56.245Z,100184.28
2023-01-11T01:34:58.779Z,100191.84
2023-01-11T01:38:01.583Z,100187.75
2023-01-11T01:41:04.954Z,100188.38
2023-01-11T01:44:45.479Z,100179.37
2023-01-11T01:47:54.079Z,100185.75
2023-01-11T01:51:00.314Z,100177.84
2023-01-11T01:54:06.490Z,100178.12
2023-01-11T01:57:12.989Z,100175.38
2023-01-11T02:00:16.220Z,100181.16
2023-01-11T02:03:21.533Z,100180.66
2023-01-11T02:06:24.516Z,100179.81
2023-01-11T02:09:35.309Z,100191.56
2023-01-11T02:12:42.137Z,100196.09
2023-01-11T02:15:44.617Z,100203.59
2023-01-11T02:18:47.424Z,100208.41
2023-01-11T02:22:00.499Z,100201.38
2023-01-11T02:25:20.675Z,100191.56
2023-01-11T02:28:43.295Z,100191.69
2023-01-11T02:32:00.668Z,100187.81
2023-01-11T02:35:25.041Z,100183.81
2023-01-11T02:38:43.217Z,100192.84
2023-01-11T02:42:09.321Z,100199.91
2023-01-11T02:45:17.338Z,100205.28
2023-01-11T02:48:25.719Z,100210.31
2023-01-11T02:51:40.070Z,100220.03
2023-01-11T02:54:43.795Z,100222.75
2023-01-11T02:57:47.314Z,100224.88
2023-01-11T03:00:50.653Z,100219.84
2023-01-11T03:03:54.015Z,100221.53
2023-01-11T03:07:24.112Z,100221.19
2023-01-11T03:10:50.258Z,100231.59
2023-01-11T03:14:21.005Z,100238.66
2023-01-11T03:17:47.311Z,100240.66
2023-01-11T03:20:59.397Z,100235.81
2023-01-11T03:24:29.313Z,100242.34
2023-01-11T03:27:38.152Z,100243.38
2023-01-11T03:30:47.654Z,100232.31
2023-01-11T03:34:11.312Z,100239.25
2023-01-11T03:37:20.215Z,100248.72
2023-01-11T03:40:30.622Z,100239.03
2023-01-11T03:43:36.638Z,100242.09
2023-01-11T03:46:48.756Z,100239.47
2023-01-11T03:49:54.381Z,100226.97
2023-01-11T03:53:01.885Z,100218.97
2023-01-11T03:56:07.572Z,100219.41
2023-01-11T03:59:10.443Z,100216.13
2023-01-11T04:02:18.805Z,100217.91
2023-01-11T04:05:21.756Z,100207.81
2023-01-11T04:08:24.411Z,100221.53
2023-01-11T04:11:27.290Z,100222.06
2023-01-11T04:14:29.825Z,100228.59
2023-01-11T04:17:32.566Z,100223.56
2023-01-11T04:20:37.086Z,100224.41
2023-01-11T04:23:40.060Z,100210.63
2023-01-11T04:26:42.521Z,100210.81
2023-01-11T04:29:45.478Z,100216.72
2023-01-11T04:32:48.051Z,100227.09
2023-01-11T04:35:51.026Z,100250.50
2023-01-11T04:38:53.704Z,100286.53
2023-01-11T04:42:15.150Z,100281.56
2023-01-11T04:45:17.626Z,100276.31
2023-01-11T04:48:20.664Z,100277.87
2023-01-11T04:51:23.324Z,100273.84
2023-01-11T04:54:26.233Z,100261.28
2023-01-11T04:57:28.751Z,100257.44
2023-01-11T05:00:31.653Z,100260.38
2023-01-11T05:03:34.159Z,100270.47
2023-01-11T05:06:36.970Z,100284.06
2023-01-11T05:09:40.848Z,100291.41
2023-01-11T05:12:43.647Z,100279.03
2023-01-11T05:15:46.858Z,100268.25
2023-01-11T05:18:53.644Z,100278.72
2023-01-11T05:21:56.127Z,100276.22
2023-01-11T05:24:58.894Z,100282.06
2023-01-11T05:28:01.452Z,100274.37
2023-01-11T05:31:04.515Z,100265.03
2023-01-11T05:34:08.148Z,100263.03
2023-01-11T05:37:10.983Z,100271.84
2023-01-11T05:40:13.729Z,100271.47
2023-01-11T05:43:16.495Z,100267.69
2023-01-11T05:46:19.169Z,100260.81
2023-01-11T05:49:22.137Z,100258.19
2023-01-11T05:52:24.665Z,100261.75
2023-01-11T05:55:27.429Z,100247.69
2023-01-11T05:58:29.899Z,100245.53
2023-01-11T06:01:32.799Z,100239.00
2023-01-11T06:04:35.653Z,100237.13
2023-01-11T06:07:38.231Z,100241.78
2023-01-11T06:10:41.353Z,100239.44
2023-01-11T06:13:43.942Z,100234.94
2023-01-11T06:16:46.905Z,100228.09
2023-01-11T06:19:49.502Z,100225.78
2023-01-11T06:22:52.312Z,100248.53
2023-01-11T06:25:55.196Z,100244.25
2023-01-11T06:28:58.245Z,100257.16
2023-01-11T06:32:01.164Z,100262.50
2023-01-11T06:35:04.229Z,100264.28
2023-01-11T06:38:08.346Z,100271.56
2023-01-11T06:41:11.900Z,100266.31
2023-01-11T06:44:14.390Z,100267.66
2023-01-11T06:47:17.184Z,100265.75
2023-01-11T06:50:19.949Z,100280.66
2023-01-11T06:53:23.671Z,100283.28
2023-01-11T06:56:26.177Z,100300.91
2023-01-11T06:59:28.968Z,100297.78
2023-01-11T07:02:32.129Z,100308.13
2023-01-11T07:05:36.263Z,100326.84
2023-01-11T07:08:38.852Z,100330.41
2023-01-11T07:11:42.090Z,100338.56
2023-01-11T07:14:44.553Z,100333.50
2023-01-11T07:17:49.399Z,100327.12
2023-01-11T07:20:52.175Z,100342.84
2023-01-11T07:23:55.524Z,100345.19
2023-01-11T07:27:00.842Z,100345.09
2023-01-11T07:30:04.053Z,100338.66
2023-01-11T07:33:07.598Z,100331.63
2023-01-11T07:36:10.385Z,100342.84
2023-01-11T07:39:12.947Z,100339.41
2023-01-11T07:42:34.446Z,100334.34
2023-01-11T07:45:47.217Z,100341.06
2023-01-11T07:48:50.173Z,100334.34
2023-01-11T07:51:52.968Z,100337.97
2023-01-11T07:54:55.827Z,100347.62
2023-01-11T07:57:58.466Z,100362.03
2023-01-11T08:01:01.529Z,100356.25
2023-01-11T08:04:04.766Z,100349.78
2023-01-11T08:07:07.248Z,100360.38
2023-01-11T08:10:10.900Z,100358.87
2023-01-11T08:13:32.670Z,100358.22
2023-01-11T08:16:35.485Z,100355.59
